Glidden, Wisconsin
Current Conditions -  °F | °C
As of 1:15 AM on Sunday 23 Nov 2014 (Local Time) from KPBH Reporting Station
Haze Haze  
Wind Chill: 31°   Ceiling: 200
Heat Index: 37°   Visibility: 0.75mi
Dew Point: 37°   Wind: 8mph
Humidity: 100%   Direction: 150°SSE
Pressure: 29.57"   Gusts: NA
Location:  46.13°N, 90.58°W
Report Text: KPBH 230715Z AUTO 15007KT 3/4SM BR OVC002 03/03 A2957 RMK AO2 T00280028
Loading
Personal Weather Stations






























Interactive Weather Map New forecast layout! Learn more

10-Day Weather Forecast

Advertisements
Track Severe Weather on mobile